createdAt,value
2018-08-10T00:02:02.394Z,97816.07
2018-08-10T00:04:32.548Z,97819.50
2018-08-10T00:07:13.469Z,97826.27
2018-08-10T00:09:42.729Z,97830.63
2018-08-10T00:12:12.124Z,97821.28
2018-08-10T00:14:43.723Z,97815.02
2018-08-10T00:17:24.262Z,97819.67
2018-08-10T00:20:05.647Z,97818.03
2018-08-10T00:23:07.152Z,97828.96
2018-08-10T00:25:36.317Z,97825.08
2018-08-10T00:28:13.708Z,97822.92
2018-08-10T00:30:44.524Z,97822.92
2018-08-10T00:33:26.558Z,97811.94
2018-08-10T00:35:57.208Z,97807.05
2018-08-10T00:38:33.325Z,97795.75
2018-08-10T00:44:43.758Z,97777.35
2018-08-10T00:47:19.298Z,97785.30
2018-08-10T00:49:59.228Z,97799.95
2018-08-10T00:53:02.331Z,97795.98
2018-08-10T00:55:32.667Z,97799.16
2018-08-10T00:58:04.271Z,97794.60
2018-08-10T01:00:34.952Z,97795.64
2018-08-10T01:03:13.316Z,97800.31
2018-08-10T01:05:48.763Z,97799.53
2018-08-10T01:08:18.078Z,97802.23
2018-08-10T01:10:47.371Z,97806.70
2018-08-10T01:13:26.496Z,97809.48
2018-08-10T01:15:55.648Z,97807.69
2018-08-10T01:18:25.420Z,97803.06
2018-08-10T01:20:55.139Z,97813.56
2018-08-10T01:23:24.838Z,97821.39
2018-08-10T01:26:35.997Z,97829.41
2018-08-10T01:29:15.237Z,97821.84
2018-08-10T01:31:44.496Z,97820.47
2018-08-10T01:34:20.009Z,97813.58
2018-08-10T01:37:05.440Z,97804.58
2018-08-10T01:39:34.592Z,97809.49
2018-08-10T01:42:04.368Z,97809.59
2018-08-10T01:44:33.700Z,97798.39
2018-08-10T01:47:03.460Z,97800.41
2018-08-10T01:49:32.741Z,97800.41
2018-08-10T01:52:02.344Z,97798.35
2018-08-10T01:54:31.484Z,97794.21
2018-08-10T01:57:03.810Z,97793.56
2018-08-10T02:02:45.516Z,97776.41
2018-08-10T02:05:16.717Z,97771.38
2018-08-10T02:08:08.332Z,97771.48
2018-08-10T02:10:38.684Z,97773.59
2018-08-10T02:13:07.995Z,97761.80
2018-08-10T02:15:37.490Z,97761.55
2018-08-10T02:18:16.111Z,97770.07
2018-08-10T02:20:46.477Z,97751.97
2018-08-10T02:23:15.804Z,97761.56
2018-08-10T02:25:45.229Z,97754.89
2018-08-10T02:28:33.114Z,97752.80
2018-08-10T02:31:03.083Z,97760.80
2018-08-10T02:33:32.895Z,97754.76
2018-08-10T02:36:09.220Z,97750.64
2018-08-10T02:38:38.602Z,97747.56
2018-08-10T02:41:07.679Z,97745.87
2018-08-10T02:43:38.034Z,97753.89
2018-08-10T02:46:07.181Z,97756.24
2018-08-10T02:48:36.391Z,97759.52
2018-08-10T02:51:05.638Z,97758.20
2018-08-10T02:53:34.951Z,97754.55
2018-08-10T02:56:15.930Z,97753.02
2018-08-10T02:58:45.432Z,97747.54
2018-08-10T03:04:26.161Z,97763.05
2018-08-10T03:07:11.501Z,97762.98
2018-08-10T03:09:40.717Z,97775.03
2018-08-10T03:12:11.621Z,97773.11
2018-08-10T03:14:41.359Z,97773.40
2018-08-10T03:17:10.909Z,97786.66
2018-08-10T03:19:40.042Z,97776.95
2018-08-10T03:22:09.756Z,97779.33
2018-08-10T03:24:38.948Z,97780.19
2018-08-10T03:27:08.718Z,97787.75
2018-08-10T03:29:38.034Z,97793.00
2018-08-10T03:32:07.379Z,97797.23
2018-08-10T03:34:37.202Z,97793.08
2018-08-10T03:37:07.706Z,97798.68
2018-08-10T03:39:36.879Z,97805.84
2018-08-10T03:42:06.190Z,97805.92
2018-08-10T03:44:35.326Z,97807.81
2018-08-10T03:47:04.600Z,97808.25
2018-08-10T03:49:33.603Z,97816.66
2018-08-10T03:52:04.440Z,97819.19
2018-08-10T03:54:33.457Z,97823.13
2018-08-10T03:57:03.039Z,97820.02
2018-08-10T03:59:32.087Z,97816.67
2018-08-10T04:02:01.806Z,97826.08
2018-08-10T04:04:30.904Z,97833.02
2018-08-10T04:07:00.208Z,97837.17
2018-08-10T04:09:29.305Z,97835.93
2018-08-10T04:11:58.337Z,97833.14
2018-08-10T04:14:27.446Z,97831.11
2018-08-10T04:16:56.512Z,97839.17
2018-08-10T04:19:25.679Z,97835.80
2018-08-10T04:21:54.826Z,97832.05
2018-08-10T04:24:24.035Z,97835.08
2018-08-10T04:26:53.214Z,97833.28
2018-08-10T04:29:22.357Z,97845.30
2018-08-10T04:31:51.414Z,97853.59
2018-08-10T04:34:20.473Z,97851.91
2018-08-10T04:36:49.676Z,97853.98
2018-08-10T04:39:18.742Z,97857.98
2018-08-10T04:41:47.808Z,97849.11
2018-08-10T04:44:16.943Z,97851.85
2018-08-10T04:46:45.995Z,97858.55
2018-08-10T04:49:15.126Z,97864.05
2018-08-10T04:51:44.240Z,97866.22
2018-08-10T04:54:13.425Z,97866.02
2018-08-10T04:56:43.516Z,97862.59
2018-08-10T04:59:12.608Z,97858.16
2018-08-10T05:01:42.196Z,97863.52
2018-08-10T05:04:11.247Z,97867.21
2018-08-10T05:06:40.626Z,97867.30
2018-08-10T05:09:12.043Z,97878.67
2018-08-10T05:11:41.225Z,97870.06
2018-08-10T05:14:10.486Z,97866.87
2018-08-10T05:16:39.657Z,97859.83
2018-08-10T05:19:08.947Z,97868.20
2018-08-10T05:21:38.221Z,97864.89
2018-08-10T05:24:07.363Z,97873.92
2018-08-10T05:26:36.394Z,97880.83
2018-08-10T05:29:05.586Z,97885.83
2018-08-10T05:31:34.647Z,97881.00
2018-08-10T05:34:04.248Z,97882.09
2018-08-10T05:36:33.305Z,97891.08
2018-08-10T05:39:03.009Z,97904.45
2018-08-10T05:41:32.125Z,97920.80
2018-08-10T05:44:01.818Z,97911.48
2018-08-10T05:46:30.940Z,97918.53
2018-08-10T05:49:00.208Z,97915.30
2018-08-10T05:51:29.400Z,97917.66
2018-08-10T05:53:58.622Z,97925.75
2018-08-10T05:56:27.705Z,97933.60
2018-08-10T05:58:56.809Z,97929.63
2018-08-10T06:01:25.894Z,97938.96
2018-08-10T06:03:55.200Z,97935.08
2018-08-10T06:06:24.101Z,97936.66
2018-08-10T06:08:53.088Z,97939.38
2018-08-10T06:11:22.293Z,97939.95
2018-08-10T06:13:51.475Z,97942.53
2018-08-10T06:16:20.616Z,97938.28
2018-08-10T06:18:49.693Z,97936.16
2018-08-10T06:21:18.781Z,97942.36
2018-08-10T06:23:47.878Z,97934.20
2018-08-10T06:26:17.027Z,97942.72
2018-08-10T06:28:46.075Z,97939.16
2018-08-10T06:31:15.214Z,97944.23
2018-08-10T06:33:44.467Z,97943.56
2018-08-10T06:36:13.592Z,97947.16
2018-08-10T06:38:42.712Z,97941.48
2018-08-10T06:41:12.127Z,97950.75
2018-08-10T06:43:41.209Z,97945.75
2018-08-10T06:46:10.248Z,97956.74
2018-08-10T06:48:39.477Z,97950.11
2018-08-10T06:51:08.620Z,97955.75
2018-08-10T06:53:37.751Z,97962.91
2018-08-10T06:56:07.000Z,97966.81
2018-08-10T06:58:37.765Z,97963.38
2018-08-10T07:01:09.188Z,97959.81
2018-08-10T07:03:40.269Z,97961.94
2018-08-10T07:06:10.177Z,97959.41
2018-08-10T07:13:24.028Z,97965.42
2018-08-10T07:16:02.212Z,97969.30
2018-08-10T07:18:31.352Z,97972.05
2018-08-10T07:21:01.450Z,97965.84
2018-08-10T07:23:30.526Z,97966.92
2018-08-10T07:25:59.685Z,97973.75
2018-08-10T07:28:28.812Z,97977.52
2018-08-10T07:30:57.939Z,97977.89
2018-08-10T07:33:27.051Z,97975.42
2018-08-10T07:35:56.995Z,97978.37
2018-08-10T07:38:26.199Z,97978.28
2018-08-10T07:40:55.411Z,97983.88
2018-08-10T07:43:25.131Z,97977.23
2018-08-10T07:45:54.233Z,97979.61
2018-08-10T07:48:23.634Z,97985.64
2018-08-10T07:50:52.723Z,97984.55
2018-08-10T07:53:21.823Z,97990.23
2018-08-10T07:55:50.960Z,97982.71
2018-08-10T07:58:20.087Z,97985.77
2018-08-10T08:00:49.471Z,97977.03
2018-08-10T08:03:18.597Z,97976.88
2018-08-10T08:05:47.974Z,97976.52
2018-08-10T08:08:17.119Z,97983.22
2018-08-10T08:10:46.391Z,97983.52
2018-08-10T08:13:15.459Z,97989.09
2018-08-10T08:15:44.528Z,97986.33
2018-08-10T08:18:13.692Z,97989.62
2018-08-10T08:20:54.330Z,97991.19
2018-08-10T08:23:23.489Z,97990.52
2018-08-10T08:25:52.624Z,97980.84
2018-08-10T08:28:25.801Z,97987.75
2018-08-10T08:30:55.081Z,97984.31
2018-08-10T08:33:24.453Z,97985.03
2018-08-10T08:35:53.919Z,97987.55
2018-08-10T08:38:33.875Z,97979.42
2018-08-10T08:41:03.667Z,97988.67
2018-08-10T08:43:43.329Z,97979.83
2018-08-10T08:46:12.797Z,97980.06
2018-08-10T08:48:43.319Z,97978.99
2018-08-10T08:51:15.632Z,97988.45
2018-08-10T08:53:44.796Z,97992.09
2018-08-10T08:56:16.319Z,97979.57
2018-08-10T08:58:46.537Z,97978.13
2018-08-10T09:01:16.251Z,97973.09
2018-08-10T09:05:09.301Z,97977.77
2018-08-10T09:07:39.108Z,97983.77
2018-08-10T09:10:11.572Z,97988.76
2018-08-10T09:12:40.774Z,97989.25
2018-08-10T09:15:11.722Z,97981.22
2018-08-10T09:17:41.026Z,97979.67
2018-08-10T09:20:10.861Z,97980.94
2018-08-10T09:22:40.053Z,97982.22
2018-08-10T09:25:18.583Z,97983.80
2018-08-10T09:27:47.667Z,97983.79
2018-08-10T09:30:20.288Z,97984.14
2018-08-10T09:32:49.419Z,97974.17
2018-08-10T09:35:20.941Z,97966.09
2018-08-10T09:37:50.009Z,97968.65
2018-08-10T09:40:21.354Z,97965.36
2018-08-10T09:42:50.500Z,97977.51
2018-08-10T09:45:19.862Z,97961.55
2018-08-10T09:47:50.049Z,97971.68
2018-08-10T09:50:20.631Z,97963.55
2018-08-10T09:52:59.030Z,97959.75
2018-08-10T09:55:36.350Z,97954.33
2018-08-10T10:03:50.512Z,97955.37
2018-08-10T10:06:19.607Z,97955.67
2018-08-10T10:08:48.662Z,97959.95
2018-08-10T10:11:17.805Z,97958.30
2018-08-10T10:13:46.857Z,97951.98
2018-08-10T10:16:22.384Z,97961.62
2018-08-10T10:18:51.452Z,97961.87
2018-08-10T10:21:20.492Z,97965.92
2018-08-10T10:23:49.622Z,97960.11
2018-08-10T10:26:18.682Z,97964.16
2018-08-10T10:28:47.699Z,97967.17
2018-08-10T10:31:16.789Z,97959.16
2018-08-10T10:33:45.748Z,97955.55
2018-08-10T10:36:14.786Z,97957.66
2018-08-10T10:38:43.810Z,97956.20
2018-08-10T10:41:12.831Z,97949.93
2018-08-10T10:43:41.816Z,97947.31
2018-08-10T10:46:11.205Z,97953.73
2018-08-10T10:48:40.206Z,97954.72
2018-08-10T10:51:15.419Z,97935.19
2018-08-10T10:53:44.872Z,97950.73
2018-08-10T10:56:14.028Z,97948.70
2018-08-10T10:58:43.166Z,97941.53
2018-08-10T11:01:12.496Z,97943.69
2018-08-10T11:03:41.543Z,97939.29
2018-08-10T11:06:11.000Z,97937.03
2018-08-10T11:08:39.915Z,97939.39
2018-08-10T11:11:09.535Z,97942.15
2018-08-10T11:13:38.570Z,97938.11
2018-08-10T11:16:07.652Z,97941.23
2018-08-10T11:18:36.653Z,97937.31
2018-08-10T11:21:05.691Z,97931.88
2018-08-10T11:23:34.617Z,97932.00
2018-08-10T11:26:04.347Z,97928.00
2018-08-10T11:28:33.285Z,97935.08
2018-08-10T11:31:02.845Z,97935.95
2018-08-10T11:33:31.952Z,97937.67
2018-08-10T11:36:01.549Z,97930.55
2018-08-10T11:38:30.578Z,97931.51
2018-08-10T11:40:59.625Z,97931.51
2018-08-10T11:43:28.668Z,97932.52
2018-08-10T11:45:57.623Z,97932.10
2018-08-10T11:48:26.585Z,97928.30
2018-08-10T11:50:55.618Z,97926.67
2018-08-10T11:53:24.600Z,97924.61
2018-08-10T11:55:53.562Z,97927.36
2018-08-10T11:58:22.842Z,97920.66
2018-08-10T12:00:51.841Z,97918.88
2018-08-10T12:03:20.776Z,97922.47
2018-08-10T12:05:49.835Z,97918.97
2018-08-10T12:08:18.824Z,97912.46
2018-08-10T12:10:47.774Z,97916.11
2018-08-10T12:13:17.756Z,97908.84
2018-08-10T12:15:46.915Z,97896.84
2018-08-10T12:18:15.954Z,97895.80
2018-08-10T12:20:44.924Z,97906.41
2018-08-10T12:23:13.930Z,97894.23
2018-08-10T12:25:42.905Z,97892.42
2018-08-10T12:28:11.938Z,97899.02
2018-08-10T12:30:40.882Z,97901.41
2018-08-10T12:33:10.279Z,97913.08
2018-08-10T12:35:39.331Z,97914.22
2018-08-10T12:38:08.800Z,97921.27
2018-08-10T12:40:37.769Z,97907.38
2018-08-10T12:43:06.926Z,97911.45
2018-08-10T12:45:35.922Z,97899.45
2018-08-10T12:48:05.550Z,97900.77
2018-08-10T12:50:34.684Z,97904.52
2018-08-10T12:53:04.097Z,97900.14
2018-08-10T12:55:33.019Z,97898.20
2018-08-10T12:58:02.468Z,97896.55
2018-08-10T13:00:31.429Z,97900.31
2018-08-10T13:03:01.009Z,97894.27
2018-08-10T13:05:29.914Z,97895.16
2018-08-10T13:07:58.991Z,97897.67
2018-08-10T13:10:27.946Z,97895.94
2018-08-10T13:12:56.870Z,97887.93
2018-08-10T13:15:25.847Z,97891.16
2018-08-10T13:17:54.814Z,97881.47
2018-08-10T13:20:24.027Z,97882.30
2018-08-10T13:22:52.990Z,97878.29
2018-08-10T13:25:21.883Z,97865.19
2018-08-10T13:27:50.911Z,97861.38
2018-08-10T13:30:19.900Z,97861.36
2018-08-10T13:32:48.822Z,97861.49
2018-08-10T13:35:19.098Z,97859.72
2018-08-10T13:37:48.128Z,97856.24
2018-08-10T13:40:19.174Z,97857.98
2018-08-10T13:42:48.124Z,97854.22
2018-08-10T13:45:19.206Z,97852.92
2018-08-10T13:47:48.285Z,97855.29
2018-08-10T13:50:19.925Z,97848.50
2018-08-10T13:52:48.911Z,97838.13
2018-08-10T13:55:19.062Z,97847.34
2018-08-10T13:57:49.529Z,97846.75
2018-08-10T14:00:21.859Z,97845.38
2018-08-10T14:02:58.511Z,97838.73
2018-08-10T14:05:27.746Z,97837.94
2018-08-10T14:07:56.771Z,97833.33
2018-08-10T14:10:25.860Z,97841.04
2018-08-10T14:12:54.832Z,97840.36
2018-08-10T14:15:23.901Z,97838.30
2018-08-10T14:17:54.204Z,97835.31
2018-08-10T14:20:24.100Z,97830.20
2018-08-10T14:22:53.221Z,97830.19
2018-08-10T14:25:22.262Z,97828.64
2018-08-10T14:27:51.249Z,97825.56
2018-08-10T14:30:25.263Z,97821.54
2018-08-10T14:32:54.262Z,97824.73
2018-08-10T14:35:23.201Z,97823.20
2018-08-10T14:37:52.272Z,97817.45
2018-08-10T14:40:21.755Z,97817.51
2018-08-10T14:42:51.994Z,97804.18
2018-08-10T14:45:23.710Z,97806.44
2018-08-10T14:47:54.451Z,97803.17
2018-08-10T14:50:24.859Z,97798.41
2018-08-10T14:52:53.828Z,97805.50
2018-08-10T14:55:22.917Z,97790.28
2018-08-10T14:57:51.909Z,97809.48
2018-08-10T15:00:21.966Z,97810.53
2018-08-10T15:02:51.547Z,97809.34
2018-08-10T15:05:20.756Z,97809.33
2018-08-10T15:07:50.592Z,97811.08
2018-08-10T15:10:19.606Z,97809.05
2018-08-10T15:12:48.942Z,97814.19
2018-08-10T15:17:41.795Z,97809.23
2018-08-10T15:20:18.044Z,97804.72
2018-08-10T15:22:47.158Z,97807.59
2018-08-10T15:25:18.508Z,97808.17
2018-08-10T15:27:48.281Z,97809.67
2018-08-10T15:30:20.016Z,97813.33
2018-08-10T15:32:50.741Z,97813.66
2018-08-10T15:35:19.942Z,97811.73
2018-08-10T15:37:50.509Z,97806.73
2018-08-10T15:40:20.397Z,97811.61
2018-08-10T15:42:49.479Z,97809.04
2018-08-10T15:45:20.314Z,97809.12
2018-08-10T15:47:49.535Z,97808.61
2018-08-10T15:50:18.661Z,97810.97
2018-08-10T15:52:47.910Z,97806.39
2018-08-10T15:55:17.317Z,97813.35
2018-08-10T15:57:46.443Z,97808.16
2018-08-10T16:00:22.702Z,97809.27
2018-08-10T16:02:51.736Z,97811.14
2018-08-10T16:05:20.809Z,97815.80
2018-08-10T16:07:49.882Z,97817.27
2018-08-10T16:10:18.960Z,97810.64
2018-08-10T16:12:48.034Z,97809.99
2018-08-10T16:15:18.566Z,97806.45
2018-08-10T16:17:47.700Z,97799.35
2018-08-10T16:20:21.805Z,97794.92
2018-08-10T16:22:51.247Z,97798.90
2018-08-10T16:25:20.407Z,97795.30
2018-08-10T16:27:49.661Z,97791.88
2018-08-10T16:30:18.821Z,97771.16
2018-08-10T16:32:48.006Z,97793.95
2018-08-10T16:35:17.674Z,97803.77
2018-08-10T16:37:47.569Z,97799.52
2018-08-10T16:40:18.841Z,97806.21
2018-08-10T16:42:47.870Z,97800.73
2018-08-10T16:45:17.793Z,97803.73
2018-08-10T16:47:49.459Z,97801.84
2018-08-10T16:50:19.565Z,97806.85
2018-08-10T16:52:48.697Z,97803.21
2018-08-10T16:55:19.248Z,97801.00
2018-08-10T16:57:48.887Z,97801.01
2018-08-10T17:00:21.647Z,97800.32
2018-08-10T17:02:50.729Z,97807.63
2018-08-10T17:05:21.526Z,97802.48
2018-08-10T17:07:51.931Z,97805.45
2018-08-10T17:10:21.043Z,97808.42
2018-08-10T17:12:51.202Z,97811.63
2018-08-10T17:15:21.315Z,97813.28
2018-08-10T17:17:50.445Z,97810.12
2018-08-10T17:20:21.147Z,97804.86
2018-08-10T17:22:50.233Z,97817.83
2018-08-10T17:28:12.099Z,97816.70
2018-08-10T17:30:41.536Z,97813.58
2018-08-10T17:33:10.775Z,97813.48
2018-08-10T17:35:39.816Z,97812.83
2018-08-10T17:38:08.974Z,97815.97
2018-08-10T17:40:38.058Z,97817.82
2018-08-10T17:43:07.185Z,97821.08
2018-08-10T17:45:36.356Z,97825.24
2018-08-10T17:48:06.126Z,97828.45
2018-08-10T17:50:35.238Z,97817.06
2018-08-10T17:53:04.680Z,97822.52
2018-08-10T17:55:33.646Z,97825.52
2018-08-10T17:58:03.195Z,97827.83
2018-08-10T18:00:32.294Z,97824.84
2018-08-10T18:03:01.804Z,97827.05
2018-08-10T18:05:30.886Z,97822.16
2018-08-10T18:08:00.044Z,97829.45
2018-08-10T18:10:35.568Z,97832.09
2018-08-10T18:13:04.718Z,97833.22
2018-08-10T18:15:33.681Z,97839.70
2018-08-10T18:18:03.318Z,97842.73
2018-08-10T18:20:32.356Z,97844.45
2018-08-10T18:23:03.238Z,97842.13
2018-08-10T18:25:32.338Z,97846.77
2018-08-10T18:28:01.806Z,97849.16
2018-08-10T18:30:30.961Z,97851.06
2018-08-10T18:33:00.161Z,97853.46
2018-08-10T18:35:29.138Z,97853.24
2018-08-10T18:37:58.280Z,97851.09
2018-08-10T18:40:27.452Z,97862.58
2018-08-10T18:42:56.519Z,97859.24
2018-08-10T18:45:26.795Z,97865.22
2018-08-10T18:47:55.874Z,97861.91
2018-08-10T18:50:25.069Z,97874.89
2018-08-10T18:52:54.172Z,97868.91
2018-08-10T18:55:23.967Z,97878.15
2018-08-10T18:57:53.515Z,97874.82
2018-08-10T19:00:25.079Z,97886.25
2018-08-10T19:02:54.356Z,97891.81
2018-08-10T19:05:23.911Z,97895.06
2018-08-10T19:07:52.941Z,97895.16
2018-08-10T19:10:23.927Z,97904.83
2018-08-10T19:12:52.917Z,97900.52
2018-08-10T19:15:21.906Z,97906.21
2018-08-10T19:17:50.909Z,97906.05
2018-08-10T19:20:20.975Z,97910.13
2018-08-10T19:22:49.966Z,97910.23
2018-08-10T19:25:24.094Z,97914.59
2018-08-10T19:27:53.092Z,97912.38
2018-08-10T19:30:26.254Z,97918.13
2018-08-10T19:32:55.232Z,97916.97
2018-08-10T19:35:24.532Z,97919.86
2018-08-10T19:37:53.598Z,97920.55
2018-08-10T19:40:25.115Z,97919.52
2018-08-10T19:42:54.108Z,97920.80
2018-08-10T19:45:23.202Z,97920.45
2018-08-10T19:48:12.910Z,97920.83
2018-08-10T19:50:44.698Z,97922.55
2018-08-10T19:53:13.993Z,97928.92
2018-08-10T19:55:43.155Z,97924.11
2018-08-10T19:58:16.235Z,97921.54
2018-08-10T20:00:47.640Z,97925.39
2018-08-10T20:03:17.203Z,97928.02
2018-08-10T20:05:46.296Z,97929.06
2018-08-10T20:08:15.859Z,97922.20
2018-08-10T20:10:45.134Z,97920.31
2018-08-10T20:13:14.380Z,97918.18
2018-08-10T20:15:43.757Z,97927.14
2018-08-10T20:18:13.024Z,97925.80
2018-08-10T20:20:42.290Z,97925.05
2018-08-10T20:23:12.784Z,97929.66
2018-08-10T20:25:55.633Z,97921.67
2018-08-10T20:28:35.807Z,97920.72
2018-08-10T20:31:17.250Z,97915.56
2018-08-10T20:33:59.175Z,97915.87
2018-08-10T20:36:28.391Z,97918.47
2018-08-10T20:39:27.536Z,97925.25
2018-08-10T20:42:16.024Z,97922.50
2018-08-10T20:44:45.870Z,97922.16
2018-08-10T20:47:16.050Z,97920.92
2018-08-10T20:50:08.091Z,97920.94
2018-08-10T20:52:37.342Z,97911.47
2018-08-10T20:55:23.454Z,97924.15
2018-08-10T20:58:04.376Z,97928.28
2018-08-10T21:00:51.142Z,97924.11
2018-08-10T21:03:21.048Z,97927.70
2018-08-10T21:05:50.146Z,97930.52
2018-08-10T21:11:16.772Z,97935.73
2018-08-10T21:13:46.054Z,97938.70
2018-08-10T21:16:20.104Z,97943.02
2018-08-10T21:18:49.720Z,97941.80
2018-08-10T21:21:19.221Z,97942.56
2018-08-10T21:23:48.527Z,97940.73
2018-08-10T21:26:35.100Z,97944.14
2018-08-10T21:29:05.890Z,97942.97
2018-08-10T21:31:35.498Z,97951.92
2018-08-10T21:34:05.346Z,97950.91
2018-08-10T21:36:34.609Z,97953.76
2018-08-10T21:39:11.267Z,97949.28
2018-08-10T21:53:11.841Z,97954.28
2018-08-10T21:56:01.161Z,97955.72
2018-08-10T21:58:55.183Z,97947.01
2018-08-10T22:01:24.386Z,97952.10
2018-08-10T22:04:09.516Z,97960.57
2018-08-10T22:06:39.528Z,97962.08
2018-08-10T22:09:12.821Z,97957.87
2018-08-10T22:11:42.059Z,97962.00
2018-08-10T22:14:23.358Z,97958.70
2018-08-10T22:16:58.219Z,97961.95
2018-08-10T22:19:27.395Z,97955.45
2018-08-10T22:21:56.634Z,97960.95
2018-08-10T22:24:29.818Z,97962.69
2018-08-10T22:27:05.747Z,97964.78
2018-08-10T22:29:39.301Z,97963.45
2018-08-10T22:32:15.713Z,97972.09
2018-08-10T22:34:53.041Z,97968.87
2018-08-10T22:37:22.422Z,97974.09
2018-08-10T22:39:59.808Z,97976.73
2018-08-10T22:46:11.319Z,97978.66
2018-08-10T22:48:40.541Z,97979.28
2018-08-10T22:51:15.523Z,97978.77
2018-08-10T22:53:44.766Z,97977.47
2018-08-10T22:56:13.884Z,97982.59
2018-08-10T22:58:57.745Z,97977.80
2018-08-10T23:01:46.517Z,97983.39
2018-08-10T23:04:55.388Z,97979.44
2018-08-10T23:07:51.352Z,97984.64
2018-08-10T23:10:44.729Z,97987.27
2018-08-10T23:13:25.951Z,97984.41
2018-08-10T23:16:08.362Z,97984.45
2018-08-10T23:19:09.615Z,97978.50
2018-08-10T23:24:45.992Z,97975.59
2018-08-10T23:27:18.931Z,97969.31
2018-08-10T23:30:09.577Z,97966.09
2018-08-10T23:33:03.492Z,97970.41
2018-08-10T23:35:32.926Z,97970.27
2018-08-10T23:38:02.937Z,97979.00
2018-08-10T23:43:04.327Z,97969.16
2018-08-10T23:45:54.190Z,97968.93
2018-08-10T23:48:41.087Z,97965.36
2018-08-10T23:51:10.479Z,97961.38
2018-08-10T23:53:39.619Z,97959.98
2018-08-10T23:56:08.995Z,97961.36
2018-08-10T23:58:42.309Z,97963.99
